AU-0107 weather

Midway
Western Australia, Australia

Public forecast

Using degrees Celsius for public forecast. Weather courtesy of forecast.io.

Closest aviation weather report (METAR) to Midway

Closest report is Perth Jandakot Airport, 34.8 nm (64.5 km) N. Retrieved 2020/02/18 21:30 UTC (0 seconds ago):

YPJT 182130Z AUTO 10012KT 9999 // NCD 23/10 Q1012 RF000/0000

Closest aviation forecast (TAF) to Midway

Forecast is more than 12 hours old.

Closest forecast is Perth Jandakot Airport, 34.8 nm (64.5 km) N. Retrieved 2020/02/18 06:00 UTC (15 hours ago):

TAF YPJT 180423Z 1806/1900 12012KT CAVOK FM181500 09014G24KT CAVOK